Time;durP1;ratioP1;P1;durP2;ratioP2;P2;SDS_P1;SDS_P2;PMS_P1;PMS_P2;Temp;Humidity;BMP_temperature;BMP_pressure;BME280_temperature;BME280_humidity;BME280_pressure;Samples;Min_cycle;Max_cycle;Signal;HPM_P1;HPM_P2
2022/07/25 00:01:44;;;;;;;12.40;10.30;;;;;;;18.92;100.00;100703.59;5016320;28;20068;-74
2022/07/25 00:04:11;;;;;;;16.33;10.90;;;;;;;18.95;100.00;100714.78;5016256;28;20048;-74
2022/07/25 00:06:36;;;;;;;;;;;;;;;18.94;100.00;100707.72;5035619;28;20511;-73
2022/07/25 00:09:02;;;;;;;;;;;;;;;18.91;100.00;100716.25;5026934;28;20012;-74
2022/07/25 00:11:27;;;;;;;17.33;10.45;;;;;;;18.91;100.00;100724.38;5023445;28;19917;-73
2022/07/25 00:13:52;;;;;;;12.77;9.83;;;;;;;18.92;100.00;100726.06;5016400;28;20046;-73
2022/07/25 00:16:18;;;;;;;13.10;10.07;;;;;;;18.89;100.00;100718.34;5015908;28;20053;-74
2022/07/25 00:18:43;;;;;;;14.10;10.97;;;;;;;18.86;100.00;100726.91;4998194;28;20104;-73
2022/07/25 00:21:09;;;;;;;16.43;10.37;;;;;;;18.84;100.00;100739.81;5013575;28;20034;-73
2022/07/25 00:23:34;;;;;;;17.00;11.40;;;;;;;18.79;100.00;100739.66;5017870;28;20037;-73
2022/07/25 00:26:00;;;;;;;16.63;10.77;;;;;;;18.84;100.00;100747.94;5013839;28;20026;-73
2022/07/25 00:28:25;;;;;;;15.03;10.53;;;;;;;18.79;100.00;100747.75;5016315;28;20075;-73
2022/07/25 00:30:51;;;;;;;12.47;9.97;;;;;;;18.79;100.00;100760.47;4997265;28;20127;-73
2022/07/25 00:33:16;;;;;;;13.10;10.20;;;;;;;18.77;100.00;100757.97;5017381;28;20041;-74
2022/07/25 00:35:42;;;;;;;13.45;10.00;;;;;;;18.77;100.00;100755.25;5017797;28;20032;-73
2022/07/25 00:38:07;;;;;;;15.43;10.23;;;;;;;18.81;100.00;100755.66;5017267;28;20549;-73
2022/07/25 00:40:33;;;;;;;14.70;10.53;;;;;;;18.86;100.00;100745.84;5014063;28;20028;-73
2022/07/25 00:42:59;;;;;;;15.27;9.98;;;;;;;18.91;100.00;100729.78;5015505;28;20061;-74
2022/07/25 00:45:24;;;;;;;14.57;10.53;;;;;;;18.86;100.00;100737.72;5015814;28;20107;-75
2022/07/25 00:47:50;;;;;;;15.07;10.35;;;;;;;18.86;100.00;100743.13;5016127;28;20058;-74
2022/07/25 00:50:15;;;;;;;15.13;10.50;;;;;;;18.77;100.00;100752.56;5016410;28;20360;-74
2022/07/25 00:52:41;;;;;;;16.83;10.87;;;;;;;18.72;100.00;100768.56;5017042;28;20087;-73
2022/07/25 00:55:06;;;;;;;11.93;10.07;;;;;;;18.66;100.00;100772.97;5014243;28;20096;-75
2022/07/25 00:57:32;;;;;;;17.65;12.43;;;;;;;18.63;100.00;100786.09;5033852;28;20280;-73
2022/07/25 00:59:58;;;;;;;14.57;11.60;;;;;;;18.63;100.00;100789.59;5017257;28;20065;-75
2022/07/25 01:02:24;;;;;;;15.25;10.30;;;;;;;18.58;100.00;100796.72;5007082;28;20138;-73
2022/07/25 01:04:50;;;;;;;12.63;10.80;;;;;;;18.54;100.00;100794.44;5015781;28;20220;-73
2022/07/25 01:07:15;;;;;;;12.85;10.73;;;;;;;18.48;100.00;100787.19;5015094;28;20293;-74
2022/07/25 01:09:41;;;;;;;10.85;9.73;;;;;;;18.42;100.00;100785.31;5016339;28;20394;-76
2022/07/25 01:12:06;;;;;;;14.73;10.65;;;;;;;18.43;100.00;100768.09;5015343;28;20036;-73
2022/07/25 01:14:37;;;;;;;12.52;8.63;;;;;;;18.43;100.00;100765.38;5016032;28;20033;-73
2022/07/25 01:17:03;;;;;;;10.80;8.77;;;;;;;18.48;100.00;100754.75;5017067;28;20037;-73
2022/07/25 01:19:28;;;;;;;11.68;8.88;;;;;;;18.44;100.00;100731.88;5017748;28;20025;-73
2022/07/25 01:21:55;;;;;;;10.67;8.47;;;;;;;18.43;100.00;100714.03;5014767;28;20101;-73
2022/07/25 01:24:20;;;;;;;8.63;7.72;;;;;;;18.42;100.00;100689.91;5015885;28;20109;-73
2022/07/25 01:26:46;;;;;;;10.90;6.95;;;;;;;18.46;100.00;100670.31;5014565;28;20121;-74
2022/07/25 01:29:11;;;;;;;9.60;7.73;;;;;;;18.59;100.00;100628.03;5013986;28;20546;-74
2022/07/25 01:31:36;;;;;;;10.20;6.87;;;;;;;18.57;100.00;100590.41;5015543;28;20037;-75
2022/07/25 01:34:02;;;;;;;10.40;7.17;;;;;;;18.58;100.00;100588.53;5016609;28;20029;-73
2022/07/25 01:36:27;;;;;;;11.40;7.40;;;;;;;18.62;100.00;100577.06;5013579;28;20155;-75
2022/07/25 01:38:53;;;;;;;8.00;6.17;;;;;;;18.63;100.00;100567.06;5015450;28;20164;-73
2022/07/25 01:41:18;;;;;;;9.60;6.23;;;;;;;18.77;100.00;100528.09;5015432;28;20276;-74
2022/07/25 01:43:43;;;;;;;10.63;7.17;;;;;;;18.85;100.00;100519.72;4996819;28;20034;-74
2022/07/25 01:46:09;;;;;;;10.13;5.93;;;;;;;18.87;100.00;100501.38;5015018;28;20052;-75
2022/07/25 01:48:34;;;;;;;9.57;7.47;;;;;;;18.79;100.00;100501.66;4994946;28;20118;-72
2022/07/25 01:51:00;;;;;;;7.23;6.53;;;;;;;18.71;100.00;100504.63;5012678;28;20775;-73
2022/07/25 01:53:25;;;;;;;6.30;5.70;;;;;;;18.81;100.00;100499.56;5017851;28;20430;-74
2022/07/25 01:55:56;;;;;;;8.83;6.83;;;;;;;18.84;100.00;100496.41;5012972;28;20029;-74
2022/07/25 01:58:21;;;;;;;8.32;6.38;;;;;;;18.78;100.00;100502.72;5010158;28;20037;-75
2022/07/25 02:00:47;;;;;;;10.27;6.73;;;;;;;18.81;100.00;100504.16;5013574;28;20025;-74
2022/07/25 02:03:31;;;;;;;9.70;6.55;;;;;;;18.77;100.00;100514.56;5016160;28;20040;-74
2022/07/25 02:06:03;;;;;;;12.45;7.05;;;;;;;18.78;100.00;100494.59;5015297;28;20099;-73
2022/07/25 02:08:30;;;;;;;7.97;5.57;;;;;;;18.79;100.00;100476.50;5008430;28;20065;-75
2022/07/25 02:10:57;;;;;;;8.10;5.75;;;;;;;18.97;100.00;100401.59;5017017;28;20422;-75
2022/07/25 02:13:23;;;;;;;7.20;5.82;;;;;;;18.98;100.00;100373.47;5013711;28;20720;-74
2022/07/25 02:15:49;;;;;;;;;;;;;;;19.01;100.00;100365.97;4996745;28;20405;-74
2022/07/25 02:18:14;;;;;;;;;;;;;;;19.17;100.00;100316.63;5018002;28;20379;-75
2022/07/25 02:20:39;;;;;;;11.73;6.73;;;;;;;19.12;100.00;100292.16;5017105;28;19909;-74
2022/07/25 02:23:05;;;;;;;8.10;6.10;;;;;;;19.12;100.00;100289.44;5017121;28;20037;-73
2022/07/25 02:25:31;;;;;;;8.17;5.40;;;;;;;19.07;100.00;100286.59;5011722;28;20831;-73
2022/07/25 02:27:57;;;;;;;6.68;5.63;;;;;;;19.05;100.00;100278.72;5016351;28;20041;-74
2022/07/25 02:30:22;;;;;;;9.73;6.23;;;;;;;19.00;100.00;100288.59;5002538;28;20095;-73
2022/07/25 02:32:48;;;;;;;11.07;6.05;;;;;;;18.94;100.00;100291.16;5020971;28;20088;-75
2022/07/25 02:35:13;;;;;;;8.13;5.10;;;;;;;19.00;100.00;100284.00;5019562;28;20035;-73
2022/07/25 02:37:39;;;;;;;5.57;4.87;;;;;;;19.05;100.00;100253.53;5016489;28;20714;-74
2022/07/25 02:40:05;;;;;;;8.05;5.22;;;;;;;19.09;100.00;100222.28;5016141;28;20359;-73
2022/07/25 02:42:31;;;;;;;9.13;5.00;;;;;;;19.08;100.00;100207.09;5021275;28;20033;-74
2022/07/25 02:44:56;;;;;;;6.90;5.47;;;;;;;19.09;100.00;100203.34;5021102;28;20025;-74
2022/07/25 02:47:22;;;;;;;7.18;4.95;;;;;;;19.11;100.00;100187.69;5017136;28;20095;-74
2022/07/25 02:49:47;;;;;;;8.50;5.70;;;;;;;19.09;100.00;100179.00;5015823;28;20018;-74
2022/07/25 02:52:13;;;;;;;7.50;5.40;;;;;;;19.12;100.00;100162.28;5034130;28;20064;-73
2022/07/25 02:54:38;;;;;;;8.17;4.90;;;;;;;19.23;100.00;100158.78;5020847;28;20061;-73
2022/07/25 02:57:04;;;;;;;7.43;4.40;;;;;;;19.19;100.00;100125.94;5019610;28;20041;-73
2022/07/25 02:59:29;;;;;;;5.60;4.87;;;;;;;19.21;100.00;100122.19;5016000;28;20267;-74
2022/07/25 03:01:54;;;;;;;6.33;4.70;;;;;;;19.24;100.00;100121.69;5015982;28;20076;-73
2022/07/25 03:04:20;;;;;;;6.87;5.07;;;;;;;19.18;100.00;100107.25;5019720;28;20030;-72
2022/07/25 03:06:45;;;;;;;4.97;3.67;;;;;;;19.17;100.00;100095.59;5020571;28;20056;-73
2022/07/25 03:09:11;;;;;;;7.27;4.30;;;;;;;19.24;100.00;100090.03;5015280;28;20025;-73
2022/07/25 03:11:36;;;;;;;9.43;5.20;;;;;;;19.21;100.00;100052.66;5016706;28;20037;-74
2022/07/25 03:14:02;;;;;;;4.87;4.27;;;;;;;19.20;100.00;100075.38;5014310;28;20265;-73
2022/07/25 03:16:28;;;;;;;5.72;4.70;;;;;;;19.20;100.00;100069.94;5017813;28;20467;-74
2022/07/25 03:18:53;;;;;;;7.10;4.50;;;;;;;19.22;100.00;100054.28;5015804;28;20099;-74
2022/07/25 03:21:19;;;;;;;6.33;4.37;;;;;;;19.19;100.00;100061.00;5015803;28;20040;-74
2022/07/25 03:23:44;;;;;;;4.10;3.70;;;;;;;19.11;100.00;100053.25;5016536;28;20445;-73
2022/07/25 03:26:09;;;;;;;4.73;4.07;;;;;;;19.22;100.00;100053.47;5016132;28;20491;-75
2022/07/25 03:28:35;;;;;;;4.60;4.17;;;;;;;19.23;100.00;100031.59;5017959;28;20036;-75
2022/07/25 03:31:01;;;;;;;6.33;3.83;;;;;;;19.30;100.00;100020.66;5015637;28;20053;-74
2022/07/25 03:33:26;;;;;;;5.28;4.50;;;;;;;19.21;100.00;100025.59;5000274;28;20048;-75
2022/07/25 03:35:52;;;;;;;4.88;4.35;;;;;;;19.25;100.00;100036.78;5014736;28;20041;-75
2022/07/25 03:38:17;;;;;;;4.93;3.30;;;;;;;19.31;100.00;100024.97;5014275;28;20061;-74
2022/07/25 03:40:43;;;;;;;4.30;3.90;;;;;;;19.24;100.00;100038.63;5016337;28;20395;-74
2022/07/25 03:43:08;;;;;;;4.27;3.70;;;;;;;19.19;100.00;100043.94;5014114;28;20034;-75
2022/07/25 03:45:33;;;;;;;6.07;3.90;;;;;;;19.20;100.00;100064.53;5018063;28;20045;-75
2022/07/25 03:48:00;;;;;;;6.13;3.67;;;;;;;19.16;100.00;100047.13;5014887;28;20088;-73
2022/07/25 03:50:25;;;;;;;5.85;3.92;;;;;;;19.19;100.00;100069.09;5015750;28;20033;-74
2022/07/25 03:52:50;;;;;;;7.67;4.20;;;;;;;19.23;100.00;100047.00;5015474;28;20036;-75
2022/07/25 03:55:16;;;;;;;7.30;3.47;;;;;;;19.20;100.00;100023.97;5015173;28;20123;-75
2022/07/25 03:57:42;;;;;;;5.73;4.10;;;;;;;19.30;100.00;100021.47;5016287;28;20017;-74
2022/07/25 04:00:09;;;;;;;4.95;3.38;;;;;;;19.25;100.00;100037.59;5013204;28;20125;-74
2022/07/25 04:02:36;;;;;;;6.30;3.45;;;;;;;19.28;100.00;100031.69;5017418;28;20457;-73
2022/07/25 04:05:03;;;;;;;4.40;3.83;;;;;;;19.32;100.00;100021.22;4989897;28;20041;-74
2022/07/25 04:07:28;;;;;;;4.80;3.72;;;;;;;19.28;100.00;100025.47;5017875;28;20018;-74
2022/07/25 04:09:53;;;;;;;6.87;3.90;;;;;;;19.31;100.00;100033.91;5029566;28;20057;-74
2022/07/25 04:12:19;;;;;;;5.60;3.30;;;;;;;19.24;100.00;100029.69;5016614;28;20606;-73
2022/07/25 04:14:44;;;;;;;6.83;3.90;;;;;;;19.35;100.00;100037.81;5014586;28;20036;-74
2022/07/25 04:17:09;;;;;;;7.07;3.70;;;;;;;19.35;100.00;100021.56;5015128;28;20531;-73
2022/07/25 04:19:35;;;;;;;10.83;3.70;;;;;;;19.39;99.03;100008.41;5016277;28;20029;-75
2022/07/25 04:22:00;;;;;;;4.00;3.60;;;;;;;19.33;98.93;99988.50;5013119;28;20029;-74
2022/07/25 04:24:26;;;;;;;4.00;3.27;;;;;;;19.41;96.92;99965.69;5017450;28;20021;-74
2022/07/25 04:26:51;;;;;;;6.27;4.20;;;;;;;19.46;97.60;99987.44;5013699;28;20137;-74
2022/07/25 04:29:16;;;;;;;6.80;4.27;;;;;;;19.51;94.80;99943.41;5015252;28;20128;-74
2022/07/25 04:31:42;;;;;;;5.23;3.10;;;;;;;19.54;94.55;99951.84;5030941;28;20021;-75
2022/07/25 04:34:07;;;;;;;4.03;3.47;;;;;;;19.60;92.88;99925.72;5013548;28;20709;-74
2022/07/25 04:36:32;;;;;;;4.70;2.93;;;;;;;19.64;92.24;99916.00;4999561;28;20018;-75
2022/07/25 04:38:58;;;;;;;3.40;3.10;;;;;;;19.64;90.23;99880.81;5012856;28;20038;-75
2022/07/25 04:41:23;;;;;;;3.93;3.07;;;;;;;19.62;90.26;99882.97;4998816;28;20037;-73
2022/07/25 04:43:49;;;;;;;4.77;3.53;;;;;;;19.65;90.42;99893.31;5014572;28;20030;-73
2022/07/25 04:46:19;;;;;;;10.27;3.10;;;;;;;19.72;89.44;99875.06;4997419;28;20541;-73
2022/07/25 04:48:44;;;;;;;3.90;3.08;;;;;;;19.84;88.38;99872.28;5014896;28;20446;-73
2022/07/25 04:51:10;;;;;;;4.17;2.47;;;;;;;20.06;87.41;99887.78;5013220;28;20033;-74
2022/07/25 04:53:35;;;;;;;3.33;2.80;;;;;;;20.17;84.79;99849.78;5031703;28;20037;-76
2022/07/25 04:56:00;;;;;;;6.97;3.60;;;;;;;20.27;83.72;99859.94;4996191;28;20022;-76
2022/07/25 04:58:26;;;;;;;3.20;2.90;;;;;;;20.50;81.21;99829.09;5008333;28;20029;-76
2022/07/25 05:00:51;;;;;;;5.27;2.90;;;;;;;20.60;80.11;99821.16;5013156;28;20033;-73
2022/07/25 05:03:17;;;;;;;4.40;3.43;;;;;;;20.90;78.25;99825.31;5014426;28;20482;-74
2022/07/25 05:05:42;;;;;;;3.37;2.90;;;;;;;21.07;75.73;99785.38;5014378;28;20025;-77
2022/07/25 05:08:07;;;;;;;3.90;3.10;;;;;;;21.21;75.29;99802.06;5009432;28;20038;-76
2022/07/25 05:10:33;;;;;;;3.53;2.97;;;;;;;21.27;73.37;99743.22;5014772;28;20025;-76
2022/07/25 05:12:58;;;;;;;5.20;2.90;;;;;;;21.26;71.93;99707.13;5012068;28;20506;-76
2022/07/25 05:15:24;;;;;;;6.30;3.17;;;;;;;21.38;71.06;99706.94;5014867;28;20047;-75
2022/07/25 05:17:50;;;;;;;8.90;3.58;;;;;;;21.42;70.65;99702.66;5012729;28;20037;-75
2022/07/25 05:20:15;;;;;;;5.70;3.28;;;;;;;21.43;70.73;99717.88;5014500;28;20389;-76
2022/07/25 05:22:41;;;;;;;5.80;3.20;;;;;;;21.48;70.30;99703.50;5014379;28;20068;-76
2022/07/25 05:25:09;;;;;;;3.97;3.00;;;;;;;21.43;70.69;99698.88;5013877;28;20084;-74
2022/07/25 05:27:34;;;;;;;4.18;3.03;;;;;;;21.50;69.45;99677.72;5015764;28;20056;-77
2022/07/25 05:30:01;;;;;;;3.33;3.03;;;;;;;21.47;69.07;99658.44;4995061;28;20046;-77
2022/07/25 05:32:26;;;;;;;6.17;2.83;;;;;;;21.52;68.85;99663.06;5014915;28;20041;-77
2022/07/25 05:34:51;;;;;;;4.33;2.97;;;;;;;21.49;68.05;99621.81;5013633;28;20048;-76
2022/07/25 05:37:17;;;;;;;6.20;3.20;;;;;;;21.57;68.68;99654.97;5013774;28;20264;-77
2022/07/25 05:39:43;;;;;;;3.53;2.67;;;;;;;21.62;68.17;99663.16;5013457;28;20044;-76
2022/07/25 05:42:08;;;;;;;4.30;2.78;;;;;;;22.20;65.79;99701.25;5011166;28;20065;-74
2022/07/25 05:44:33;;;;;;;4.28;2.58;;;;;;;22.42;64.36;99698.38;5016449;28;20030;-76
2022/07/25 05:46:59;;;;;;;4.57;3.00;;;;;;;22.39;63.22;99606.47;5011471;28;20042;-75
2022/07/25 05:49:24;;;;;;;4.03;2.70;;;;;;;22.41;62.92;99596.13;5011460;28;20065;-73
2022/07/25 05:51:50;;;;;;;6.17;3.17;;;;;;;22.19;63.95;99599.84;5012228;28;20091;-76
2022/07/25 05:54:16;;;;;;;4.78;2.70;;;;;;;21.93;65.61;99631.53;5014433;28;20022;-77
2022/07/25 05:56:42;;;;;;;3.25;2.85;;;;;;;21.91;65.67;99626.38;5016390;28;20022;-77
2022/07/25 05:59:07;;;;;;;3.83;2.90;;;;;;;22.06;64.82;99636.50;4996961;28;20061;-77
2022/07/25 06:01:33;;;;;;;3.47;2.50;;;;;;;22.01;65.48;99636.47;5016756;28;20029;-75
2022/07/25 06:03:58;;;;;;;3.78;2.95;;;;;;;21.93;66.45;99664.94;5013895;28;20338;-77
2022/07/25 06:06:24;;;;;;;4.47;2.87;;;;;;;21.79;68.54;99715.41;5016069;28;20124;-73
2022/07/25 06:08:49;;;;;;;5.18;2.60;;;;;;;21.68;67.91;99635.75;5013580;28;20510;-74
2022/07/25 06:11:15;;;;;;;4.70;3.13;;;;;;;21.84;67.84;99682.81;5013961;28;20034;-73
2022/07/25 06:13:40;;;;;;;5.30;3.20;;;;;;;22.09;66.56;99698.47;5016301;28;20017;-77
2022/07/25 06:16:06;;;;;;;4.20;2.93;;;;;;;22.23;66.39;99706.19;5015920;28;20030;-77
2022/07/25 06:18:31;;;;;;;3.88;2.97;;;;;;;22.63;65.32;99759.09;5013519;28;20068;-76
2022/07/25 06:20:57;;;;;;;5.43;2.90;;;;;;;23.29;62.33;99761.19;5011754;28;20045;-77
2022/07/25 06:23:22;;;;;;;4.90;3.00;;;;;;;23.80;59.17;99710.28;5015365;28;20467;-74
2022/07/25 06:25:48;;;;;;;3.83;2.83;;;;;;;24.11;57.17;99663.84;4999930;28;20488;-74
2022/07/25 06:28:13;;;;;;;4.00;3.37;;;;;;;24.30;56.24;99590.41;5014243;28;20272;-73
2022/07/25 06:30:45;;;;;;;4.70;3.00;;;;;;;23.95;56.95;99575.03;5009887;28;20025;-73
2022/07/25 06:33:11;;;;;;;3.67;2.92;;;;;;;23.81;58.40;99637.50;5011579;28;20037;-76
2022/07/25 06:35:37;;;;;;;3.72;2.60;;;;;;;24.24;57.47;99662.44;5016573;28;20075;-74
2022/07/25 06:38:03;;;;;;;8.15;3.40;;;;;;;24.09;56.88;99587.00;5016363;28;20038;-74
2022/07/25 06:40:28;;;;;;;5.03;2.60;;;;;;;24.06;56.34;99529.47;5011109;28;20088;-73
2022/07/25 06:42:54;;;;;;;9.23;2.85;;;;;;;24.16;56.57;99587.50;5015026;28;20116;-72
2022/07/25 06:45:19;;;;;;;4.22;2.42;;;;;;;24.61;56.50;99700.22;4995324;28;20487;-73
2022/07/25 06:47:45;;;;;;;8.55;3.10;;;;;;;25.30;53.09;99588.34;5016055;28;20029;-75
2022/07/25 06:50:17;;;;;;;2.95;2.63;;;;;;;25.06;53.13;99493.50;5027563;28;20040;-74
2022/07/25 06:52:43;;;;;;;5.45;3.08;;;;;;;25.44;52.28;99536.56;5015967;28;20513;-74
2022/07/25 06:55:09;;;;;;;;;;;;;;;24.68;53.59;99446.13;5011872;28;20882;-73
2022/07/25 06:57:35;;;;;;;8.32;2.92;;;;;;;24.64;54.33;99502.38;5014241;28;19955;-74
2022/07/25 07:00:05;;;;;;;6.53;2.97;;;;;;;24.42;55.23;99511.78;5010985;28;20101;-74
2022/07/25 07:02:30;;;;;;;2.80;2.30;;;;;;;24.56;55.38;99527.53;5005767;28;20048;-74
2022/07/25 07:04:55;;;;;;;3.13;2.80;;;;;;;25.35;54.83;99713.13;5011610;28;20515;-74
2022/07/25 07:07:21;;;;;;;3.30;2.73;;;;;;;25.38;52.84;99565.03;5014675;28;20566;-75
2022/07/25 07:09:46;;;;;;;2.97;2.70;;;;;;;24.73;54.25;99465.19;5012992;28;20029;-75
2022/07/25 07:12:11;;;;;;;7.00;3.10;;;;;;;24.92;53.71;99475.38;5015622;28;20617;-75
2022/07/25 07:14:37;;;;;;;9.13;3.33;;;;;;;24.66;54.38;99474.81;5020428;28;20021;-74
2022/07/25 07:17:04;;;;;;;5.57;3.38;;;;;;;24.83;55.39;99590.63;5019108;28;20283;-73
2022/07/25 07:19:29;;;;;;;5.13;2.92;;;;;;;24.98;55.01;99588.88;5007422;28;20026;-73
2022/07/25 07:21:55;;;;;;;4.93;2.97;;;;;;;24.70;54.83;99486.75;5016861;28;20487;-74
2022/07/25 07:24:20;;;;;;;4.30;3.10;;;;;;;25.36;53.30;99578.19;5018006;28;20026;-75
2022/07/25 07:26:45;;;;;;;5.97;3.35;;;;;;;25.62;52.52;99535.00;5033414;28;20444;-75
2022/07/25 07:29:11;;;;;;;6.30;3.17;;;;;;;25.57;52.19;99489.41;5017287;28;20026;-73
2022/07/25 07:31:36;;;;;;;3.92;3.13;;;;;;;25.49;53.59;99544.69;5017962;28;20769;-75
2022/07/25 07:34:02;;;;;;;4.70;3.37;;;;;;;25.38;52.88;99472.97;5016637;28;20025;-75
2022/07/25 07:36:28;;;;;;;4.32;3.50;;;;;;;25.17;53.80;99505.16;5020081;28;20441;-74
2022/07/25 07:38:53;;;;;;;8.20;3.70;;;;;;;25.42;53.50;99525.09;5001484;28;20124;-74
2022/07/25 07:41:19;;;;;;;4.28;3.40;;;;;;;25.47;54.27;99590.63;5013803;28;20058;-74
2022/07/25 07:43:44;;;;;;;3.50;3.20;;;;;;;25.70;52.17;99479.66;5002047;28;20030;-75
2022/07/25 07:46:10;;;;;;;5.80;3.15;;;;;;;26.13;51.61;99563.59;5018918;28;20033;-75
2022/07/25 07:48:36;;;;;;;5.57;3.20;;;;;;;26.34;51.23;99537.63;5014853;28;20060;-74
2022/07/25 07:51:02;;;;;;;5.15;3.40;;;;;;;26.03;50.83;99405.97;5013731;28;20095;-75
2022/07/25 07:56:13;;;;;;;4.65;3.45;;;;;;;26.55;50.59;99538.16;5017474;28;20091;-77
2022/07/25 07:58:39;;;;;;;5.32;3.55;;;;;;;27.18;49.15;99561.41;4998891;28;20036;-73
2022/07/25 08:01:05;;;;;;;5.05;3.25;;;;;;;27.63;48.55;99602.00;5029678;28;20037;-75
2022/07/25 08:03:31;;;;;;;4.93;3.45;;;;;;;27.62;47.68;99464.13;5019346;28;20060;-75
2022/07/25 08:05:56;;;;;;;4.55;3.47;;;;;;;27.87;48.63;99586.19;5013744;28;20034;-75
2022/07/25 08:08:22;;;;;;;4.85;3.33;;;;;;;27.90;49.61;99661.56;5015841;28;20596;-75
2022/07/25 08:10:48;;;;;;;8.82;3.22;;;;;;;27.43;48.26;99419.59;5013692;28;20516;-74
2022/07/25 08:13:19;;;;;;;6.18;3.65;;;;;;;27.93;48.92;99587.72;5016045;28;20458;-74
2022/07/25 08:15:47;;;;;;;5.68;3.45;;;;;;;28.33;47.56;99541.31;5016018;28;20044;-75
2022/07/25 08:18:13;;;;;;;7.03;3.50;;;;;;;28.54;46.15;99453.81;5015651;28;20061;-75
2022/07/25 08:20:39;;;;;;;5.22;3.60;;;;;;;27.72;47.97;99370.72;5014519;28;20065;-73
2022/07/25 08:23:06;;;;;;;5.85;3.50;;;;;;;28.25;47.50;99509.09;5013876;28;20033;-74
2022/07/25 08:25:32;;;;;;;3.92;3.53;;;;;;;27.54;47.92;99311.38;5015163;28;20546;-76
2022/07/25 08:27:58;;;;;;;4.45;3.90;;;;;;;27.86;48.18;99432.94;4996516;28;20117;-75
2022/07/25 08:30:24;;;;;;;5.22;4.22;;;;;;;28.10;48.59;99553.38;5015503;28;20240;-75
2022/07/25 08:32:56;;;;;;;8.00;3.70;;;;;;;28.90;47.11;99581.16;5015302;28;20108;-75
2022/07/25 08:35:23;;;;;;;4.15;3.75;;;;;;;28.90;46.55;99527.03;5015283;28;20057;-75
2022/07/25 08:37:49;;;;;;;7.30;4.65;;;;;;;28.93;44.19;99272.88;5015324;28;20017;-74
2022/07/25 08:40:16;;;;;;;5.70;4.22;;;;;;;28.72;43.72;99202.09;5013985;28;20042;-74
2022/07/25 08:42:42;;;;;;;4.70;3.83;;;;;;;29.10;43.59;99247.41;5015974;28;20025;-75
2022/07/25 08:45:12;;;;;;;4.68;4.28;;;;;;;29.24;43.17;99273.63;5009658;28;20033;-76
2022/07/25 08:47:39;;;;;;;5.60;4.38;;;;;;;28.47;44.53;99129.56;5015054;28;20017;-75
2022/07/25 08:50:08;;;;;;;7.07;4.60;;;;;;;28.16;44.84;99144.13;5012511;28;20049;-75
2022/07/25 08:52:34;;;;;;;6.18;4.25;;;;;;;28.29;45.20;99188.25;5016834;28;20403;-75
2022/07/25 08:55:04;;;;;;;5.18;4.50;;;;;;;28.47;45.37;99274.19;4996156;28;20384;-76
2022/07/25 08:57:30;;;;;;;5.65;4.28;;;;;;;28.13;46.05;99196.09;5009314;28;20120;-78
2022/07/25 08:59:59;;;;;;;7.53;4.57;;;;;;;27.87;45.91;99152.13;5004569;28;20108;-75
2022/07/25 09:02:28;;;;;;;6.22;4.00;;;;;;;28.08;46.89;99315.00;5017086;28;20063;-74
2022/07/25 09:04:57;;;;;;;6.18;3.70;;;;;;;28.65;45.98;99371.19;5014036;28;20096;-74
2022/07/25 09:07:37;;;;;;;5.57;4.80;;;;;;;28.64;46.26;99333.88;5014770;28;20038;-75
2022/07/25 09:10:15;;;;;;;5.07;4.57;;;;;;;28.75;46.08;99387.38;5009727;28;20242;-77
2022/07/25 09:12:41;;;;;;;6.90;4.80;;;;;;;28.52;46.21;99310.56;5019064;28;20037;-75
2022/07/25 09:15:07;;;;;;;7.90;4.85;;;;;;;28.84;46.64;99429.41;5014107;28;20022;-75
2022/07/25 09:17:36;;;;;;;;;;;;;;;29.31;46.02;99501.22;5016711;28;20104;-75
2022/07/25 09:20:03;;;;;;;7.10;5.05;;;;;;;29.22;45.16;99346.50;5012233;28;19916;-75
2022/07/25 09:22:29;;;;;;;6.88;5.18;;;;;;;29.07;44.86;99284.56;5004685;28;20530;-75
2022/07/25 09:24:54;;;;;;;6.70;4.72;;;;;;;28.92;45.79;99332.50;5012545;28;20121;-74
2022/07/25 09:27:20;;;;;;;;;;;;;;;28.82;46.47;99374.81;5016435;28;20037;-74
2022/07/25 09:29:45;;;;;;;8.87;5.00;;;;;;;28.79;45.58;99251.03;5021576;28;19960;-75
2022/07/25 09:32:18;;;;;;;;;;;;;;;28.77;44.93;99170.91;5013952;28;20124;-74
2022/07/25 09:34:46;;;;;;;7.70;4.47;;;;;;;28.92;45.51;99241.88;5014884;28;19920;-74
2022/07/25 09:37:13;;;;;;;9.18;5.03;;;;;;;29.16;45.02;99262.59;5014021;28;20072;-75
2022/07/25 09:39:43;;;;;;;6.15;5.03;;;;;;;29.14;45.07;99259.38;5015889;28;20543;-74
2022/07/25 09:42:23;;;;;;;6.97;4.53;;;;;;;29.48;44.76;99337.47;4997457;28;20547;-74
2022/07/25 09:45:06;;;;;;;8.05;4.97;;;;;;;29.54;43.62;99240.75;5032846;28;20148;-77
2022/07/25 09:47:34;;;;;;;7.40;4.93;;;;;;;30.08;44.38;99405.44;5012945;28;20104;-75
2022/07/25 09:50:00;;;;;;;7.88;5.10;;;;;;;29.59;43.93;99217.78;5011943;28;20034;-74
2022/07/25 09:52:25;;;;;;;7.13;5.07;;;;;;;29.77;43.41;99235.09;5015093;28;20056;-75
2022/07/25 09:54:51;;;;;;;8.40;4.80;;;;;;;30.17;43.62;99381.47;5014081;28;20036;-75
2022/07/25 09:57:16;;;;;;;;;;;;;;;30.60;43.57;99443.94;5016403;28;20414;-75
2022/07/25 09:59:43;;;;;;;7.63;5.28;;;;;;;30.86;43.14;99421.84;5016737;28;19909;-75
2022/07/25 10:02:26;;;;;;;5.85;4.82;;;;;;;30.24;42.87;99175.34;5013837;28;20145;-74
2022/07/25 10:05:06;;;;;;;7.03;5.00;;;;;;;30.27;43.54;99265.56;5013734;28;20092;-75
2022/07/25 10:07:36;;;;;;;8.68;5.25;;;;;;;30.07;43.96;99252.50;5006273;28;20108;-75
2022/07/25 10:10:03;;;;;;;6.57;5.18;;;;;;;30.02;44.37;99274.69;5008071;28;20380;-76
2022/07/25 10:12:28;;;;;;;8.75;5.20;;;;;;;30.12;44.35;99279.03;5015052;28;20104;-75
2022/07/25 10:15:11;;;;;;;6.03;5.43;;;;;;;30.33;43.97;99334.19;5017508;28;20048;-75
2022/07/25 10:17:39;;;;;;;6.07;5.47;;;;;;;31.14;43.31;99495.81;5006947;28;20107;-75
2022/07/25 10:20:09;;;;;;;7.15;5.60;;;;;;;31.33;41.40;99256.34;4996237;28;20025;-75
2022/07/25 10:22:47;;;;;;;6.03;5.43;;;;;;;31.60;40.59;99264.41;5016723;28;20037;-75
2022/07/25 10:25:15;;;;;;;11.45;5.55;;;;;;;31.71;41.19;99351.13;5013807;28;20079;-75
2022/07/25 10:27:50;;;;;;;5.35;4.85;;;;;;;31.59;41.00;99243.50;5017171;28;20013;-75
2022/07/25 10:30:25;;;;;;;5.70;4.97;;;;;;;31.96;41.19;99368.63;5014106;28;20037;-75
2022/07/25 10:32:58;;;;;;;6.53;5.28;;;;;;;32.42;40.11;99354.81;5013899;28;20549;-74
2022/07/25 10:35:26;;;;;;;6.03;4.95;;;;;;;31.91;40.41;99209.56;5016726;28;20068;-76
2022/07/25 10:37:54;;;;;;;6.25;5.47;;;;;;;31.45;40.96;99109.47;5014728;28;20415;-75
2022/07/25 10:40:38;;;;;;;7.10;6.07;;;;;;;31.15;42.00;99165.88;5015327;28;20038;-74
2022/07/25 10:43:21;;;;;;;7.97;5.50;;;;;;;30.63;41.97;99057.72;5017418;28;20473;-74
2022/07/25 10:45:56;;;;;;;5.60;5.10;;;;;;;30.36;43.02;99118.81;5009348;28;20033;-75
2022/07/25 10:48:25;;;;;;;6.97;5.53;;;;;;;29.86;43.99;99085.41;5020077;28;20045;-74
2022/07/25 10:50:56;;;;;;;6.82;5.88;;;;;;;30.25;43.63;99165.13;5016453;28;20030;-75
2022/07/25 10:53:40;;;;;;;9.52;5.90;;;;;;;30.23;42.97;99118.69;5017248;28;20038;-74
2022/07/25 10:56:15;;;;;;;7.43;5.57;;;;;;;30.28;44.42;99222.31;5013277;28;20030;-74
2022/07/25 10:58:47;;;;;;;11.95;5.32;;;;;;;30.25;44.10;99229.28;5019354;28;20045;-74
2022/07/25 11:01:18;;;;;;;9.52;5.25;;;;;;;30.59;43.58;99266.06;5017792;28;20076;-75
2022/07/25 11:03:43;;;;;;;9.70;5.70;;;;;;;30.14;43.94;99139.16;5014560;28;20040;-74
2022/07/25 11:06:11;;;;;;;6.03;5.43;;;;;;;30.86;43.78;99346.63;5015253;28;20030;-75
2022/07/25 11:08:36;;;;;;;6.72;5.30;;;;;;;30.81;43.30;99277.91;5017158;28;20029;-75
2022/07/25 11:11:02;;;;;;;;;;;;;;;31.02;43.67;99331.13;5014751;28;20026;-74
2022/07/25 11:13:27;;;;;;;6.80;5.40;;;;;;;31.68;43.58;99493.28;5013453;28;19913;-75
2022/07/25 11:15:57;;;;;;;;;;;;;;;31.58;42.88;99369.53;5012965;28;20837;-75
2022/07/25 11:18:38;;;;;;;9.15;6.53;;;;;;;31.64;42.42;99335.09;5017134;28;19913;-75
2022/07/25 11:21:06;;;;;;;10.70;5.20;;;;;;;31.49;42.10;99264.84;5012322;28;20521;-75
2022/07/25 11:23:34;;;;;;;7.25;5.13;;;;;;;31.34;43.30;99332.38;4994684;28;20056;-75
2022/07/25 11:26:17;;;;;;;11.07;6.75;;;;;;;31.06;43.14;99213.59;5014055;28;20064;-74
2022/07/25 11:28:45;;;;;;;7.88;5.57;;;;;;;30.79;42.21;99081.84;5013876;28;20884;-74